Time;durP1;ratioP1;P1;durP2;ratioP2;P2;SDS_P1;SDS_P2;PMS_P1;PMS_P2;Temp;Humidity;BMP_temperature;BMP_pressure;BME280_temperature;BME280_humidity;BME280_pressure;Samples;Min_cycle;Max_cycle;Signal;HPM_P1;HPM_P2
2022/09/14 00:01:36;;;;;;;5.85;1.90;;;17.90;99.90;;;;;;5025477;28;20095;-59
2022/09/14 00:04:14;;;;;;;5.70;2.10;;;17.70;99.90;;;;;;5021611;28;20033;-59
2022/09/14 00:06:41;;;;;;;7.10;1.95;;;17.60;99.90;;;;;;5025756;28;20117;-59
2022/09/14 00:09:07;;;;;;;9.43;2.17;;;17.60;99.90;;;;;;5021264;28;20037;-58
2022/09/14 00:11:34;;;;;;;8.07;2.20;;;17.50;99.90;;;;;;5026379;28;20133;-59
2022/09/14 00:14:01;;;;;;;10.13;2.10;;;17.70;99.90;;;;;;5021931;28;20034;-59
2022/09/14 00:16:32;;;;;;;8.07;2.33;;;17.60;99.90;;;;;;5017749;28;20099;-59
2022/09/14 00:19:00;;;;;;;8.50;2.00;;;17.60;99.90;;;;;;5003771;28;20033;-58
2022/09/14 00:21:26;;;;;;;4.38;1.98;;;17.10;99.90;;;;;;5023470;28;20500;-59
2022/09/14 00:23:52;;;;;;;8.20;2.00;;;17.30;99.90;;;;;;5022880;28;20095;-59
2022/09/14 00:26:20;;;;;;;12.43;2.35;;;17.30;99.90;;;;;;5010740;28;20033;-59
2022/09/14 00:28:50;;;;;;;9.23;2.13;;;17.20;99.90;;;;;;5024108;28;20037;-59
2022/09/14 00:31:17;;;;;;;3.55;1.75;;;17.30;99.90;;;;;;5027588;28;20124;-59
2022/09/14 00:33:43;;;;;;;7.07;2.17;;;17.20;99.90;;;;;;5022472;28;20117;-58
2022/09/14 00:36:12;;;;;;;8.98;2.20;;;17.40;99.90;;;;;;5019977;28;20095;-58
2022/09/14 00:38:38;;;;;;;5.68;1.88;;;17.20;99.90;;;;;;5017019;28;20135;-59
2022/09/14 00:41:10;;;;;;;6.03;2.15;;;17.00;99.90;;;;;;5023321;28;20025;-59
2022/09/14 00:43:52;;;;;;;9.02;2.72;;;17.00;99.90;;;;;;5022778;28;20085;-59
2022/09/14 00:46:17;;;;;;;8.10;2.10;;;17.10;99.90;;;;;;5018130;28;20581;-59
2022/09/14 00:48:43;;;;;;;9.68;2.20;;;17.20;99.90;;;;;;5019514;28;20061;-59
2022/09/14 00:51:09;;;;;;;13.07;2.70;;;17.50;99.90;;;;;;5022914;28;20040;-59
2022/09/14 00:53:34;;;;;;;4.25;2.20;;;17.30;99.90;;;;;;5016456;28;20450;-59
2022/09/14 00:56:00;;;;;;;12.77;2.70;;;17.40;99.90;;;;;;5025126;28;20037;-59
2022/09/14 00:58:26;;;;;;;8.57;2.25;;;17.40;99.90;;;;;;5023366;28;20161;-58
2022/09/14 01:00:52;;;;;;;6.40;2.05;;;17.30;99.90;;;;;;5022165;28;20057;-58
2022/09/14 01:03:18;;;;;;;6.95;2.17;;;17.00;99.90;;;;;;5022788;28;20049;-58
2022/09/14 01:05:57;;;;;;;5.68;2.20;;;17.10;99.90;;;;;;5023740;28;20535;-58
2022/09/14 01:09:00;;;;;;;8.48;2.25;;;17.20;99.90;;;;;;5020818;28;20503;-59
2022/09/14 01:11:47;;;;;;;10.27;2.35;;;17.10;99.90;;;;;;5021520;28;22768;-58
2022/09/14 01:14:17;;;;;;;8.02;2.45;;;17.10;99.90;;;;;;5024263;28;20029;-59
2022/09/14 01:16:48;;;;;;;9.35;2.28;;;17.10;99.90;;;;;;5024404;28;20488;-58
2022/09/14 01:19:24;;;;;;;8.63;2.50;;;16.90;99.90;;;;;;5017214;28;20121;-59
2022/09/14 01:21:53;;;;;;;6.30;2.50;;;16.90;99.90;;;;;;5004626;28;20042;-59
2022/09/14 01:24:37;;;;;;;4.90;2.13;;;17.00;99.90;;;;;;5018801;28;20052;-59
2022/09/14 01:27:33;;;;;;;6.03;2.28;;;17.00;99.90;;;;;;5018106;28;20122;-59
2022/09/14 01:30:30;;;;;;;9.68;2.20;;;16.70;99.90;;;;;;5019336;28;20485;-59
2022/09/14 01:33:19;;;;;;;10.23;2.40;;;16.80;99.90;;;;;;5008420;28;20125;-59
2022/09/14 01:35:54;;;;;;;7.20;1.80;;;16.70;99.90;;;;;;5020326;28;20481;-58
2022/09/14 01:38:39;;;;;;;12.48;2.60;;;16.60;99.90;;;;;;5021406;28;20601;-59
2022/09/14 01:41:09;;;;;;;11.60;2.47;;;16.70;99.90;;;;;;5023405;28;20053;-58
2022/09/14 01:43:39;;;;;;;10.18;2.22;;;16.70;99.90;;;;;;5017436;28;20033;-59
2022/09/14 01:46:39;;;;;;;6.00;1.75;;;16.80;99.90;;;;;;5013850;28;20034;-59
2022/09/14 01:49:13;;;;;;;9.95;2.10;;;16.80;99.90;;;;;;5019783;28;20592;-58
2022/09/14 01:52:03;;;;;;;8.75;2.00;;;16.70;99.90;;;;;;5029478;28;20057;-58
2022/09/14 01:54:46;;;;;;;8.00;2.00;;;16.60;99.90;;;;;;5026476;28;20048;-58
2022/09/14 01:57:23;;;;;;;8.15;2.15;;;16.70;99.90;;;;;;5025468;28;20021;-58
2022/09/14 01:59:54;;;;;;;10.40;2.15;;;16.70;99.90;;;;;;5022944;28;20401;-58
2022/09/14 02:02:37;;;;;;;6.57;2.30;;;16.60;99.90;;;;;;5024540;28;20049;-57
2022/09/14 02:05:34;;;;;;;13.18;2.03;;;16.60;99.90;;;;;;5028852;28;20037;-58
2022/09/14 02:08:00;;;;;;;9.90;2.13;;;16.40;99.90;;;;;;5005939;28;20103;-58
2022/09/14 02:10:26;;;;;;;10.18;2.30;;;16.40;99.90;;;;;;5025630;28;20037;-59
2022/09/14 02:12:53;;;;;;;7.40;2.20;;;16.50;99.90;;;;;;5026478;28;20048;-58
2022/09/14 02:15:19;;;;;;;10.77;2.35;;;16.80;99.90;;;;;;5024139;28;20963;-59
2022/09/14 02:17:46;;;;;;;11.95;2.97;;;16.90;99.90;;;;;;5022057;28;20472;-59
2022/09/14 02:20:39;;;;;;;8.45;2.10;;;16.70;99.90;;;;;;5023292;28;20698;-58
2022/09/14 02:23:06;;;;;;;10.05;2.63;;;16.50;99.90;;;;;;5017740;28;20439;-58
2022/09/14 02:25:32;;;;;;;9.77;2.88;;;16.60;99.90;;;;;;5028919;28;20042;-59
2022/09/14 02:27:57;;;;;;;8.00;2.20;;;16.80;99.90;;;;;;5028806;28;20037;-59
2022/09/14 02:30:23;;;;;;;11.02;2.55;;;17.10;99.90;;;;;;5014853;28;20037;-58
2022/09/14 02:33:09;;;;;;;10.63;2.67;;;17.40;99.90;;;;;;5022452;28;20041;-58
2022/09/14 02:35:36;;;;;;;6.18;2.45;;;17.30;99.90;;;;;;5017843;28;20175;-59
2022/09/14 02:38:26;;;;;;;9.10;2.40;;;17.00;99.90;;;;;;5028100;28;20034;-59
2022/09/14 02:41:36;;;;;;;7.32;2.20;;;16.80;99.90;;;;;;5027389;28;20037;-58
2022/09/14 02:44:18;;;;;;;10.38;2.30;;;16.60;99.90;;;;;;4899085;29;20028;-58
2022/09/14 02:46:53;;;;;;;11.80;2.60;;;16.50;99.90;;;;;;5015532;28;20507;-59
2022/09/14 02:49:33;;;;;;;13.20;2.60;;;16.60;99.90;;;;;;5016084;28;20053;-59
2022/09/14 02:52:26;;;;;;;8.40;2.60;;;16.70;99.90;;;;;;5021994;28;20065;-57
2022/09/14 02:55:12;;;;;;;;;;;16.40;99.90;;;;;;5028656;28;20496;-58
2022/09/14 02:58:07;;;;;;;9.63;2.75;;;16.20;99.90;;;;;;5030336;28;19979;-58
2022/09/14 03:00:36;;;;;;;10.60;2.85;;;16.40;99.90;;;;;;5023374;28;20641;-59
2022/09/14 03:03:04;;;;;;;11.73;2.85;;;16.50;99.90;;;;;;5035013;28;20123;-58
2022/09/14 03:05:29;;;;;;;10.07;2.50;;;16.40;99.90;;;;;;5030296;28;20041;-59
2022/09/14 03:07:55;;;;;;;14.35;3.50;;;16.40;99.90;;;;;;5022806;28;20030;-57
2022/09/14 03:10:21;;;;;;;9.23;2.70;;;16.20;99.90;;;;;;5025472;28;20049;-59
2022/09/14 03:12:46;;;;;;;11.23;3.00;;;16.10;99.90;;;;;;5009670;28;20049;-59
2022/09/14 03:15:12;;;;;;;10.73;3.20;;;16.20;99.90;;;;;;5020373;28;20033;-60
2022/09/14 03:17:37;;;;;;;11.15;3.25;;;16.10;99.90;;;;;;5021445;28;20061;-59
2022/09/14 03:20:03;;;;;;;7.70;2.60;;;16.10;99.90;;;;;;5024437;28;20428;-59
2022/09/14 03:22:29;;;;;;;14.50;2.75;;;16.00;99.90;;;;;;5020079;28;20114;-58
2022/09/14 03:24:55;;;;;;;13.70;3.10;;;15.90;99.90;;;;;;5023055;28;20038;-59
2022/09/14 03:27:20;;;;;;;9.13;2.40;;;15.80;99.90;;;;;;5024361;28;20622;-58
2022/09/14 03:29:47;;;;;;;14.30;3.00;;;15.80;99.90;;;;;;5023214;28;20033;-58
2022/09/14 03:32:12;;;;;;;11.02;3.15;;;15.90;99.90;;;;;;5018892;28;20396;-59
2022/09/14 03:34:38;;;;;;;14.02;3.50;;;16.10;99.90;;;;;;5017157;28;20034;-59
2022/09/14 03:37:03;;;;;;;11.40;2.85;;;16.20;99.90;;;;;;5024878;28;20065;-58
2022/09/14 03:39:29;;;;;;;11.68;3.33;;;16.40;99.90;;;;;;5022565;28;20067;-59
2022/09/14 03:41:55;;;;;;;13.40;3.15;;;16.40;99.90;;;;;;5024654;28;20037;-58
2022/09/14 03:44:20;;;;;;;12.32;2.88;;;16.40;99.90;;;;;;5019032;28;20041;-58
2022/09/14 03:46:46;;;;;;;7.47;2.53;;;16.20;99.90;;;;;;5022334;28;20037;-59
2022/09/14 03:49:11;;;;;;;10.15;2.78;;;16.20;99.90;;;;;;5022301;28;20461;-59
2022/09/14 03:51:37;;;;;;;12.68;2.90;;;16.50;99.90;;;;;;5017911;28;20107;-59
2022/09/14 03:54:03;;;;;;;12.80;3.45;;;16.30;99.90;;;;;;5020678;28;20029;-58
2022/09/14 03:56:29;;;;;;;8.55;2.95;;;16.10;99.90;;;;;;5022713;28;20037;-59
2022/09/14 03:58:55;;;;;;;13.65;3.45;;;15.90;99.90;;;;;;5022129;28;20060;-58
2022/09/14 04:01:21;;;;;;;9.57;3.08;;;16.10;99.90;;;;;;5024057;28;20392;-58
2022/09/14 04:03:48;;;;;;;11.88;3.35;;;16.30;99.90;;;;;;5021709;28;20489;-59
2022/09/14 04:06:15;;;;;;;11.73;3.50;;;16.10;99.90;;;;;;5023317;28;20065;-58
2022/09/14 04:08:42;;;;;;;8.75;3.10;;;16.20;99.90;;;;;;5023472;28;20049;-59
2022/09/14 04:11:23;;;;;;;13.13;4.13;;;16.10;99.90;;;;;;5023995;28;20059;-59
2022/09/14 04:13:50;;;;;;;11.18;4.10;;;16.10;99.90;;;;;;5021629;28;20040;-59
2022/09/14 04:16:17;;;;;;;12.95;3.95;;;16.10;99.90;;;;;;5016189;28;20022;-59
2022/09/14 04:18:43;;;;;;;13.32;4.10;;;16.20;99.90;;;;;;5020598;28;20029;-60
2022/09/14 04:21:20;;;;;;;10.93;3.83;;;16.10;99.90;;;;;;5020310;28;20436;-59
2022/09/14 04:23:46;;;;;;;9.65;3.20;;;16.20;99.90;;;;;;5018854;28;20037;-59
2022/09/14 04:26:16;;;;;;;12.18;3.33;;;16.30;99.90;;;;;;5024438;28;20176;-59
2022/09/14 04:28:42;;;;;;;9.18;2.88;;;16.20;99.90;;;;;;5021594;28;20601;-57
2022/09/14 04:31:08;;;;;;;9.32;2.85;;;16.30;99.90;;;;;;5021256;28;20037;-59
2022/09/14 04:33:34;;;;;;;12.80;2.95;;;16.40;99.90;;;;;;5021020;28;20477;-59
2022/09/14 04:36:06;;;;;;;13.07;3.10;;;16.30;99.90;;;;;;5027871;28;20037;-59
2022/09/14 04:38:33;;;;;;;8.38;2.67;;;16.10;99.90;;;;;;5022207;28;20061;-59
2022/09/14 04:40:59;;;;;;;12.63;3.17;;;16.30;99.90;;;;;;5027479;28;20025;-59
2022/09/14 04:43:25;;;;;;;19.35;3.03;;;16.40;99.90;;;;;;5004878;28;20099;-59
2022/09/14 04:45:52;;;;;;;16.38;3.25;;;16.60;99.90;;;;;;5017309;28;20485;-60
2022/09/14 04:48:18;;;;;;;10.50;3.55;;;16.40;99.90;;;;;;5019586;28;20037;-59
2022/09/14 04:50:44;;;;;;;12.13;3.20;;;16.60;99.90;;;;;;5019201;28;20032;-59
2022/09/14 04:53:10;;;;;;;9.90;3.03;;;16.30;99.90;;;;;;5017873;28;20037;-59
2022/09/14 04:55:36;;;;;;;13.70;3.05;;;16.20;99.90;;;;;;5015626;28;20384;-59
2022/09/14 04:58:02;;;;;;;7.80;3.38;;;16.20;99.90;;;;;;5022627;28;20029;-59
2022/09/14 05:00:27;;;;;;;10.80;3.45;;;16.30;99.90;;;;;;5020765;28;20393;-59
2022/09/14 05:02:53;;;;;;;10.73;3.97;;;16.40;99.90;;;;;;5018483;28;20044;-59
2022/09/14 05:05:18;;;;;;;9.80;3.60;;;16.20;99.90;;;;;;5019816;28;20044;-58
2022/09/14 05:07:44;;;;;;;15.57;4.15;;;16.10;99.90;;;;;;5019713;28;20041;-59
2022/09/14 05:10:10;;;;;;;13.05;3.70;;;16.20;99.90;;;;;;5023813;28;20129;-59
2022/09/14 05:12:36;;;;;;;10.50;3.38;;;16.40;99.90;;;;;;5020964;28;20052;-59
2022/09/14 05:15:01;;;;;;;9.40;3.60;;;16.00;99.90;;;;;;5020874;28;20545;-59
2022/09/14 05:17:27;;;;;;;9.57;3.60;;;16.00;99.90;;;;;;5013558;28;20037;-59
2022/09/14 05:19:52;;;;;;;11.07;3.42;;;16.10;99.90;;;;;;5001008;28;20033;-59
2022/09/14 05:22:20;;;;;;;10.02;3.63;;;16.10;99.90;;;;;;5014831;28;20045;-58
2022/09/14 05:24:46;;;;;;;10.23;3.30;;;16.00;99.90;;;;;;5017527;28;20049;-59
2022/09/14 05:27:12;;;;;;;11.02;3.42;;;15.70;99.90;;;;;;5028130;28;20503;-59
2022/09/14 05:29:39;;;;;;;8.40;2.95;;;15.50;99.90;;;;;;5024816;28;20032;-58
2022/09/14 05:32:05;;;;;;;9.25;3.08;;;15.50;99.90;;;;;;5026535;28;20571;-59
2022/09/14 05:34:30;;;;;;;9.00;3.20;;;15.70;99.90;;;;;;5016292;28;20591;-59
2022/09/14 05:36:56;;;;;;;10.90;3.30;;;15.80;99.90;;;;;;5024257;28;20033;-58
2022/09/14 05:39:23;;;;;;;11.00;3.20;;;15.60;99.90;;;;;;5024611;28;20041;-58
2022/09/14 05:41:50;;;;;;;8.68;2.83;;;15.60;99.90;;;;;;5018905;28;20044;-59
2022/09/14 05:44:15;;;;;;;11.15;3.35;;;15.40;99.90;;;;;;5019445;28;20033;-59
2022/09/14 05:46:41;;;;;;;14.13;2.75;;;15.50;99.90;;;;;;5023929;28;20045;-59
2022/09/14 05:49:06;;;;;;;10.52;3.38;;;15.50;99.90;;;;;;5019098;28;20026;-59
2022/09/14 05:51:32;;;;;;;9.52;3.00;;;15.20;99.90;;;;;;5023994;28;20068;-58
2022/09/14 05:53:58;;;;;;;11.93;3.33;;;15.20;99.90;;;;;;5022752;28;20040;-58
2022/09/14 05:56:26;;;;;;;10.57;3.22;;;15.30;99.90;;;;;;5021871;28;20049;-58
2022/09/14 05:58:53;;;;;;;11.90;3.58;;;15.30;99.90;;;;;;5016022;28;20461;-59
2022/09/14 06:01:24;;;;;;;13.38;4.20;;;15.20;99.90;;;;;;5006911;28;20526;-59
2022/09/14 06:03:53;;;;;;;13.95;3.40;;;15.10;99.90;;;;;;5020396;28;20030;-58
2022/09/14 06:06:20;;;;;;;11.18;3.13;;;15.00;99.90;;;;;;5024121;28;20044;-58
2022/09/14 06:08:49;;;;;;;9.27;3.63;;;15.00;99.90;;;;;;5024200;28;20085;-58
2022/09/14 06:11:18;;;;;;;10.95;3.70;;;14.90;99.90;;;;;;5018956;28;20037;-59
2022/09/14 06:13:45;;;;;;;13.07;3.97;;;15.10;99.90;;;;;;5019830;28;20037;-58
2022/09/14 06:16:13;;;;;;;10.88;3.38;;;15.10;99.90;;;;;;5019171;28;20040;-60
2022/09/14 06:18:40;;;;;;;10.10;3.10;;;15.10;99.90;;;;;;5022618;28;20135;-59
2022/09/14 06:21:07;;;;;;;10.40;3.65;;;15.20;99.90;;;;;;5025842;28;20049;-60
2022/09/14 06:23:33;;;;;;;14.45;4.07;;;15.00;99.90;;;;;;5015978;28;20250;-60
2022/09/14 06:26:00;;;;;;;13.27;4.13;;;15.20;99.90;;;;;;5022521;28;20033;-59
2022/09/14 06:28:27;;;;;;;7.45;3.80;;;15.10;99.90;;;;;;5021493;28;20124;-60
2022/09/14 06:30:53;;;;;;;11.75;3.85;;;15.40;99.90;;;;;;5021072;28;20496;-60
2022/09/14 06:33:19;;;;;;;12.60;4.10;;;15.30;99.90;;;;;;5015210;28;20079;-60
2022/09/14 06:35:59;;;;;;;10.20;4.18;;;15.10;99.90;;;;;;5019321;28;20180;-60
2022/09/14 06:38:26;;;;;;;13.43;4.47;;;15.10;99.90;;;;;;5020630;28;20041;-60
2022/09/14 06:41:07;;;;;;;10.98;3.83;;;15.20;99.90;;;;;;5021471;28;20059;-59
2022/09/14 06:43:35;;;;;;;12.95;4.32;;;15.00;99.90;;;;;;5016750;28;20443;-60
2022/09/14 06:46:06;;;;;;;11.18;4.05;;;14.90;99.90;;;;;;5020938;28;20115;-60
2022/09/14 06:48:35;;;;;;;10.50;4.25;;;14.80;99.90;;;;;;5019267;28;20030;-60
2022/09/14 06:51:11;;;;;;;10.73;4.35;;;14.90;99.90;;;;;;5003897;28;20038;-59
2022/09/14 06:53:37;;;;;;;13.00;4.72;;;15.00;99.90;;;;;;5023247;28;20040;-60
2022/09/14 06:56:03;;;;;;;13.20;4.65;;;15.20;99.90;;;;;;5025190;28;20029;-60
2022/09/14 06:58:29;;;;;;;10.32;4.43;;;15.20;99.90;;;;;;5023388;28;20044;-60
2022/09/14 07:01:00;;;;;;;151.90;123.57;;;15.40;99.90;;;;;;5022499;28;20414;-60
2022/09/14 07:03:26;;;;;;;11.88;5.22;;;15.40;99.90;;;;;;5020145;28;20038;-60
2022/09/14 07:05:51;;;;;;;11.80;4.68;;;15.50;99.90;;;;;;5023716;28;20044;-59
2022/09/14 07:08:17;;;;;;;12.27;4.05;;;15.30;99.90;;;;;;5023732;28;20057;-60
2022/09/14 07:10:43;;;;;;;14.60;4.28;;;15.40;99.90;;;;;;4998269;28;20029;-59
2022/09/14 07:13:08;;;;;;;15.52;4.50;;;15.10;99.90;;;;;;5002491;28;20026;-60
2022/09/14 07:15:34;;;;;;;11.38;4.50;;;15.10;99.90;;;;;;5025962;28;20366;-60
2022/09/14 07:17:59;;;;;;;12.73;4.50;;;14.80;99.90;;;;;;5022024;28;20029;-59
2022/09/14 07:20:25;;;;;;;12.43;4.53;;;15.00;99.90;;;;;;5022468;28;20425;-60
2022/09/14 07:22:50;;;;;;;9.10;4.68;;;15.20;99.90;;;;;;5022080;28;20056;-60
2022/09/14 07:25:16;;;;;;;11.70;5.22;;;15.00;99.90;;;;;;5005835;28;20044;-60
2022/09/14 07:27:42;;;;;;;13.32;5.07;;;14.90;99.90;;;;;;5022678;28;20048;-59
2022/09/14 07:30:08;;;;;;;8.23;4.50;;;14.80;99.90;;;;;;5028009;28;20115;-59
2022/09/14 07:32:33;;;;;;;13.02;4.97;;;14.80;99.90;;;;;;5023320;28;20041;-60
2022/09/14 07:34:59;;;;;;;13.45;5.03;;;15.00;99.90;;;;;;5020719;28;20056;-60
2022/09/14 07:37:25;;;;;;;20.13;5.30;;;14.80;99.90;;;;;;5023748;28;20046;-60
2022/09/14 07:39:50;;;;;;;11.63;5.30;;;14.80;99.90;;;;;;5018263;28;20176;-60
2022/09/14 07:42:16;;;;;;;12.35;4.90;;;14.70;99.90;;;;;;5022209;28;20033;-61
2022/09/14 07:44:42;;;;;;;11.18;4.80;;;14.70;99.90;;;;;;5016900;28;20781;-60
2022/09/14 07:47:07;;;;;;;14.02;4.85;;;14.70;99.90;;;;;;5022696;28;20116;-60
2022/09/14 07:49:33;;;;;;;10.90;4.82;;;15.00;99.90;;;;;;5022866;28;20639;-60
2022/09/14 07:51:58;;;;;;;15.27;6.40;;;15.20;99.90;;;;;;5021648;28;20409;-61
2022/09/14 07:54:24;;;;;;;11.30;4.72;;;15.40;99.90;;;;;;5025047;28;20041;-60
2022/09/14 07:56:50;;;;;;;12.93;5.10;;;15.30;99.90;;;;;;5020697;28;20128;-60
2022/09/14 07:59:16;;;;;;;11.15;4.88;;;15.50;99.90;;;;;;5020965;28;20037;-60
2022/09/14 08:01:41;;;;;;;13.20;5.00;;;15.70;99.90;;;;;;5023003;28;20439;-61
2022/09/14 08:04:08;;;;;;;188.70;132.90;;;15.50;99.90;;;;;;5001977;28;20049;-65
2022/09/14 08:06:35;;;;;;;16.70;5.82;;;15.10;99.90;;;;;;5017144;28;20034;-61
2022/09/14 08:09:06;;;;;;;8.68;5.03;;;15.00;99.90;;;;;;5018788;28;20042;-61
2022/09/14 08:11:34;;;;;;;11.77;5.85;;;14.90;99.90;;;;;;5024190;28;20675;-60
2022/09/14 08:14:04;;;;;;;13.98;6.28;;;14.90;99.90;;;;;;5020577;28;20047;-60
2022/09/14 08:16:33;;;;;;;14.07;5.97;;;14.90;99.90;;;;;;5025578;28;20109;-60
2022/09/14 08:19:02;;;;;;;12.05;5.75;;;15.10;99.90;;;;;;5018235;28;20120;-60
2022/09/14 08:21:29;;;;;;;12.18;6.10;;;15.30;99.90;;;;;;5025273;28;20060;-60
2022/09/14 08:23:58;;;;;;;12.23;6.60;;;15.40;99.90;;;;;;5023981;28;20635;-61
2022/09/14 08:26:26;;;;;;;12.45;6.00;;;15.40;99.90;;;;;;5027207;28;20116;-60
2022/09/14 08:28:52;;;;;;;13.13;5.18;;;15.50;99.90;;;;;;5021162;28;20044;-60
2022/09/14 08:31:20;;;;;;;11.80;4.90;;;15.20;99.90;;;;;;5019978;28;20049;-61
2022/09/14 08:33:48;;;;;;;12.05;4.97;;;15.10;99.90;;;;;;5025749;28;20025;-61
2022/09/14 08:36:16;;;;;;;10.25;4.60;;;15.30;99.90;;;;;;5020555;28;20037;-61
2022/09/14 08:38:42;;;;;;;13.27;5.65;;;15.50;99.90;;;;;;5021286;28;20107;-61
2022/09/14 08:41:27;;;;;;;9.27;4.40;;;15.30;99.90;;;;;;5020452;28;20516;-60
2022/09/14 08:43:54;;;;;;;8.00;3.38;;;15.30;99.90;;;;;;5024063;28;20112;-60
2022/09/14 08:46:31;;;;;;;10.88;3.88;;;15.20;99.90;;;;;;5018600;28;20037;-61
2022/09/14 08:48:58;;;;;;;8.32;4.00;;;15.50;99.90;;;;;;5015357;28;20037;-61
2022/09/14 08:51:24;;;;;;;8.38;3.42;;;15.70;99.90;;;;;;5020819;28;20059;-60
2022/09/14 08:53:52;;;;;;;8.60;3.38;;;15.50;99.90;;;;;;5021878;28;20072;-61
2022/09/14 08:56:24;;;;;;;9.30;3.28;;;15.50;99.90;;;;;;5021780;28;20068;-60
2022/09/14 08:59:14;;;;;;;7.72;3.20;;;15.40;99.90;;;;;;5019017;28;20037;-61
2022/09/14 09:02:11;;;;;;;9.23;3.25;;;15.60;99.90;;;;;;5020476;28;20037;-61
2022/09/14 09:04:52;;;;;;;7.93;3.50;;;15.30;99.90;;;;;;5019328;28;20750;-60
2022/09/14 09:07:24;;;;;;;8.85;3.50;;;15.50;99.90;;;;;;5016476;28;20409;-61
2022/09/14 09:09:52;;;;;;;40.83;28.77;;;15.50;99.90;;;;;;5016638;28;20026;-60
2022/09/14 09:12:37;;;;;;;45.92;33.83;;;15.30;99.90;;;;;;5013617;28;20037;-61
2022/09/14 09:15:24;;;;;;;8.30;3.40;;;15.30;99.90;;;;;;5014870;28;20038;-61
2022/09/14 09:18:13;;;;;;;9.55;3.30;;;15.50;99.90;;;;;;5000718;28;20084;-61
2022/09/14 09:20:50;;;;;;;11.23;3.33;;;15.50;99.90;;;;;;4966664;28;20254;-61
2022/09/14 09:23:21;;;;;;;7.47;3.10;;;15.70;99.90;;;;;;5012095;28;20037;-61
2022/09/14 09:25:49;;;;;;;9.25;3.78;;;15.80;99.90;;;;;;5027779;28;20025;-61
2022/09/14 09:28:15;;;;;;;7.55;3.15;;;15.80;99.90;;;;;;5024170;28;20132;-61
2022/09/14 09:30:41;;;;;;;9.82;3.30;;;15.80;99.90;;;;;;5019391;28;20440;-61
2022/09/14 09:33:16;;;;;;;7.90;2.90;;;15.70;99.90;;;;;;5018792;28;20041;-61
2022/09/14 09:35:42;;;;;;;7.80;2.80;;;15.70;99.90;;;;;;5018876;28;20033;-61
2022/09/14 09:38:14;;;;;;;6.20;2.85;;;15.70;99.90;;;;;;5016776;28;20447;-61
2022/09/14 09:40:44;;;;;;;8.35;2.55;;;15.70;99.90;;;;;;5016621;28;20400;-60
2022/09/14 09:43:17;;;;;;;7.88;2.50;;;15.60;99.90;;;;;;5020799;28;20029;-60
2022/09/14 09:46:02;;;;;;;4.75;1.73;;;15.50;99.90;;;;;;5011435;28;20033;-61
2022/09/14 09:48:37;;;;;;;8.73;2.67;;;15.40;99.90;;;;;;5012959;28;20033;-62
2022/09/14 09:51:06;;;;;;;5.40;2.53;;;15.30;99.90;;;;;;5003622;28;20033;-61
2022/09/14 09:53:35;;;;;;;7.00;2.70;;;15.50;99.90;;;;;;5021524;28;20041;-61
2022/09/14 09:56:01;;;;;;;7.38;2.70;;;15.50;99.90;;;;;;5021718;28;20029;-61
2022/09/14 09:58:37;;;;;;;6.43;2.80;;;15.70;99.90;;;;;;5023023;28;20122;-62
2022/09/14 10:01:06;;;;;;;8.65;2.55;;;16.00;99.90;;;;;;5023333;28;20036;-61
2022/09/14 10:03:41;;;;;;;6.43;2.28;;;15.80;99.90;;;;;;5026713;28;20048;-60
2022/09/14 10:06:10;;;;;;;10.98;2.90;;;15.30;99.90;;;;;;5023936;28;20083;-61
2022/09/14 10:08:42;;;;;;;9.80;2.90;;;15.50;99.90;;;;;;4998425;28;20021;-61
2022/09/14 10:11:35;;;;;;;7.38;2.88;;;15.60;99.90;;;;;;5003688;28;20537;-61
2022/09/14 10:14:01;;;;;;;6.70;2.80;;;15.50;99.90;;;;;;5025864;28;20091;-61
2022/09/14 10:16:34;;;;;;;5.63;2.60;;;15.40;99.90;;;;;;5029122;28;20045;-61
2022/09/14 10:19:02;;;;;;;8.45;2.70;;;15.40;99.90;;;;;;5025984;28;20528;-60
2022/09/14 10:21:30;;;;;;;4.53;2.67;;;15.60;99.90;;;;;;5024790;28;20061;-61
2022/09/14 10:24:18;;;;;;;6.75;3.00;;;15.60;99.90;;;;;;5025790;28;20488;-60
2022/09/14 10:26:43;;;;;;;8.68;3.53;;;15.70;99.90;;;;;;5031482;28;20029;-61
2022/09/14 10:29:34;;;;;;;7.65;3.53;;;15.60;99.90;;;;;;5023801;28;20204;-60
2022/09/14 10:32:21;;;;;;;5.47;2.65;;;15.70;99.90;;;;;;5023300;28;20037;-61
2022/09/14 10:34:46;;;;;;;7.30;3.15;;;15.70;99.90;;;;;;5024937;28;20033;-61
2022/09/14 10:37:45;;;;;;;7.80;3.30;;;15.50;99.90;;;;;;5013429;28;20105;-61
2022/09/14 10:40:15;;;;;;;7.93;2.85;;;15.30;99.90;;;;;;5026338;28;20030;-61
2022/09/14 10:42:58;;;;;;;8.43;3.70;;;15.00;99.90;;;;;;5020482;28;20034;-60
2022/09/14 10:45:34;;;;;;;8.25;3.78;;;15.00;99.90;;;;;;5019960;28;20069;-60
2022/09/14 10:48:06;;;;;;;6.05;2.38;;;15.10;99.90;;;;;;5015063;28;20026;-61
2022/09/14 10:50:58;;;;;;;2.35;1.33;;;15.10;99.90;;;;;;5023936;28;20041;-60
2022/09/14 10:53:47;;;;;;;2.92;1.55;;;15.00;99.90;;;;;;5012847;28;20488;-61
2022/09/14 10:56:25;;;;;;;6.28;2.17;;;14.90;99.90;;;;;;5017646;28;20032;-61
2022/09/14 10:58:57;;;;;;;3.90;1.60;;;15.10;99.90;;;;;;5015511;28;20050;-61
2022/09/14 11:01:41;;;;;;;3.20;1.55;;;15.00;99.90;;;;;;5032550;28;20095;-61
2022/09/14 11:04:06;;;;;;;4.78;1.65;;;14.90;99.90;;;;;;5021014;28;20184;-61
2022/09/14 11:06:44;;;;;;;2.92;1.55;;;15.00;99.90;;;;;;5024135;28;20117;-61
2022/09/14 11:09:23;;;;;;;3.55;1.50;;;15.00;99.90;;;;;;5024694;28;20078;-60
2022/09/14 11:12:12;;;;;;;4.90;1.70;;;14.80;99.90;;;;;;5022664;28;20091;-62
2022/09/14 11:14:58;;;;;;;3.10;1.92;;;14.90;99.90;;;;;;5022643;28;20480;-61
2022/09/14 11:17:39;;;;;;;5.47;2.40;;;15.10;99.90;;;;;;5025804;28;20037;-61
2022/09/14 11:20:43;;;;;;;7.85;2.42;;;15.50;99.90;;;;;;5022758;28;20030;-60
2022/09/14 11:23:31;;;;;;;5.32;2.42;;;15.50;99.90;;;;;;5021823;28;20045;-61
2022/09/14 11:26:02;;;;;;;6.50;2.90;;;15.50;99.90;;;;;;5021067;28;20034;-61
2022/09/14 11:28:42;;;;;;;3.63;2.42;;;15.60;99.90;;;;;;5023447;28;20042;-60
2022/09/14 11:31:32;;;;;;;7.22;2.97;;;15.40;99.90;;;;;;5021569;28;20124;-61
2022/09/14 11:34:16;;;;;;;5.53;2.65;;;15.60;99.90;;;;;;5023521;28;20042;-61
2022/09/14 11:36:44;;;;;;;;;;;15.70;99.90;;;;;;5025191;28;20511;-61
2022/09/14 11:39:27;;;;;;;6.70;3.10;;;15.70;99.90;;;;;;5025930;28;19909;-61
2022/09/14 11:41:59;;;;;;;5.15;2.70;;;15.50;99.90;;;;;;5020966;28;20881;-61
2022/09/14 11:44:38;;;;;;;7.47;2.72;;;15.30;99.90;;;;;;5013914;28;20036;-61
2022/09/14 11:47:04;;;;;;;5.10;2.70;;;15.30;99.90;;;;;;5024368;28;20480;-61
2022/09/14 11:49:39;;;;;;;6.55;3.03;;;15.10;99.90;;;;;;5030946;28;20022;-61
2022/09/14 11:52:20;;;;;;;5.55;2.90;;;15.30;99.90;;;;;;5025721;28;20037;-61
2022/09/14 11:54:47;;;;;;;7.68;3.40;;;15.20;99.90;;;;;;5011004;28;20033;-61
2022/09/14 11:57:28;;;;;;;5.32;3.28;;;15.40;99.90;;;;;;5028096;28;20036;-61
2022/09/14 11:59:56;;;;;;;6.72;3.70;;;15.40;99.90;;;;;;5021460;28;20037;-61
2022/09/14 12:02:21;;;;;;;7.32;3.33;;;15.50;99.90;;;;;;5013867;28;20509;-61
2022/09/14 12:05:05;;;;;;;7.93;3.78;;;15.70;99.90;;;;;;5027933;28;20053;-61
2022/09/14 12:07:46;;;;;;;6.47;3.80;;;15.90;99.90;;;;;;5028358;28;20064;-61
2022/09/14 12:10:17;;;;;;;7.32;3.67;;;15.70;99.90;;;;;;5025999;28;20033;-61
2022/09/14 12:12:53;;;;;;;9.63;4.20;;;15.50;99.90;;;;;;5020852;28;20036;-61
2022/09/14 12:15:33;;;;;;;8.77;4.10;;;15.50;99.90;;;;;;5017928;28;20061;-61
2022/09/14 12:18:04;;;;;;;7.30;3.80;;;15.50;99.90;;;;;;5026059;28;20026;-61
2022/09/14 12:20:36;;;;;;;6.88;4.22;;;15.30;99.90;;;;;;5029166;28;20082;-61
2022/09/14 12:23:26;;;;;;;8.88;4.10;;;15.20;99.90;;;;;;5028812;28;20419;-61
2022/09/14 12:26:10;;;;;;;4.95;2.83;;;15.30;99.90;;;;;;5027132;28;20025;-61
2022/09/14 12:28:38;;;;;;;6.97;2.70;;;14.90;99.90;;;;;;5024274;28;20044;-60
2022/09/14 12:31:06;;;;;;;5.05;2.20;;;15.00;99.90;;;;;;5024598;28;20041;-61
2022/09/14 12:33:31;;;;;;;4.10;1.90;;;15.10;99.90;;;;;;5024167;28;20034;-61
2022/09/14 12:35:57;;;;;;;4.65;2.10;;;15.00;99.90;;;;;;5023364;28;20021;-61
2022/09/14 12:38:29;;;;;;;3.47;2.17;;;15.30;99.90;;;;;;5020845;28;20029;-61
2022/09/14 12:41:10;;;;;;;5.40;2.70;;;15.00;99.90;;;;;;5021697;28;20061;-61
2022/09/14 12:43:35;;;;;;;3.28;1.90;;;15.00;99.90;;;;;;5001324;28;20025;-61
2022/09/14 12:46:08;;;;;;;3.78;2.20;;;15.00;99.90;;;;;;5016128;28;20040;-61
2022/09/14 12:48:46;;;;;;;4.75;2.35;;;14.80;99.90;;;;;;5017387;28;20043;-61
2022/09/14 12:51:38;;;;;;;4.53;2.00;;;14.90;99.90;;;;;;5019151;28;20092;-61
2022/09/14 12:54:25;;;;;;;3.63;2.20;;;14.90;99.90;;;;;;5022207;28;20040;-60
2022/09/14 12:57:08;;;;;;;3.90;2.30;;;15.00;99.90;;;;;;5018687;28;20570;-61
2022/09/14 12:59:56;;;;;;;4.53;2.55;;;14.90;99.90;;;;;;5003422;28;20528;-61
2022/09/14 13:02:33;;;;;;;4.35;2.60;;;15.00;99.90;;;;;;5020972;28;20519;-61
2022/09/14 13:04:59;;;;;;;6.03;2.97;;;14.90;99.90;;;;;;5025228;28;20044;-60
2022/09/14 13:07:30;;;;;;;6.80;3.17;;;14.90;99.90;;;;;;5020642;28;20038;-61